РПИ Калининград

Калининградский РПИ является структурным подразделением VATRUS.

В зону ответственности района в сети VATSIM входит воздушное пространство над территориями Калининградской области и частью Балтийского моря. Особенностью центра является его географическое положение. Воздушное пространство района ответственности центра граничит с РПИ центров ОВД Польши, Литвы и Швеции.

Лого Калининград
Руководство

Alexey Zimin

Начальник РегЦ ЕС ОрВД (Калининград)

Dmitry Bugaychuk

Ментор

Ekaterina Romanova

Инструктор
Инструкторы РПИ
Dmitry Bugaychuk (Instructor)
Ekaterina Romanova (Instructor)
Входит в состав
Северо-западная Россия

Диспетчеры РПИ

Диспетчер Рейтинг Допуски *
Alexey Dobronravov Instructor UMKK_CTR
Dmitry Bugaychuk Instructor UMKK_CTR
Ekaterina Romanova Instructor UMKK_CTR
Nikita Assorov Instructor UMKK_CTR
Stanley Yorke Controller UMKK_CTR
Pavel Gavrilov Senior Student UMKK_APP
Nikita Ovsyannikov Student 2 UMKK_TWR

Аэропорты РПИ

ICAO Город Название Погода
UMKK Калининград Калининград UMKK 100830Z 00000MPS 9000 BKN017 M05/M06 Q1010 R24/690195 TEMPO 0400 FZFG BKN002 RMK QFE757/1009